Time;durP1;ratioP1;P1;durP2;ratioP2;P2;SDS_P1;SDS_P2;PMS_P1;PMS_P2;Temp;Humidity;BMP_temperature;BMP_pressure;BME280_temperature;BME280_humidity;BME280_pressure;Samples;Min_cycle;Max_cycle;Signal;HPM_P1;HPM_P2
2022/11/06 00:01:15;;;;;;;10.55;5.88;;;10.40;99.90;;;;;;6191208;23;20013;-89
2022/11/06 00:03:41;;;;;;;10.77;6.20;;;10.40;99.90;;;;;;6166803;23;20062;-88
2022/11/06 00:08:53;;;;;;;11.82;5.88;;;10.40;99.90;;;;;;6194150;23;20024;-88
2022/11/06 00:11:19;;;;;;;11.00;6.43;;;10.40;99.90;;;;;;6167511;22;20446;-88
2022/11/06 00:13:46;;;;;;;8.82;6.18;;;10.30;99.90;;;;;;6168758;23;20050;-88
2022/11/06 00:16:13;;;;;;;8.80;6.45;;;10.30;99.90;;;;;;6191757;23;20015;-89
2022/11/06 00:18:40;;;;;;;10.13;6.43;;;10.20;99.90;;;;;;6169408;23;20077;-88
2022/11/06 00:21:08;;;;;;;11.82;6.50;;;10.20;99.90;;;;;;6192512;23;20354;-89
2022/11/06 00:23:34;;;;;;;13.90;6.70;;;10.20;99.90;;;;;;6193456;23;20457;-87
2022/11/06 00:26:03;;;;;;;10.68;7.25;;;10.10;99.90;;;;;;6190891;23;20024;-89
2022/11/06 00:28:31;;;;;;;13.38;7.43;;;10.10;99.90;;;;;;6168850;23;20016;-88
2022/11/06 00:31:05;;;;;;;12.73;7.18;;;10.10;99.90;;;;;;6164703;23;20135;-88
2022/11/06 00:33:32;;;;;;;12.70;7.65;;;10.00;99.90;;;;;;6168994;23;20040;-88
2022/11/06 00:35:58;;;;;;;12.25;7.88;;;10.00;99.90;;;;;;6168857;23;20012;-89
2022/11/06 00:38:24;;;;;;;11.45;7.72;;;9.90;99.90;;;;;;6167754;23;20016;-88
2022/11/06 00:40:50;;;;;;;13.63;7.50;;;10.00;99.90;;;;;;6168196;23;20035;-87
2022/11/06 00:43:15;;;;;;;15.20;8.02;;;10.00;99.90;;;;;;6168753;23;20027;-89
2022/11/06 00:45:41;;;;;;;12.65;8.20;;;10.00;99.90;;;;;;6191235;23;20146;-88
2022/11/06 00:48:06;;;;;;;13.30;8.30;;;9.90;99.90;;;;;;6168328;23;20039;-88
2022/11/06 00:50:32;;;;;;;14.73;9.00;;;9.90;99.90;;;;;;6168408;23;20453;-89
2022/11/06 00:52:58;;;;;;;12.35;8.35;;;9.90;99.90;;;;;;6194748;23;20424;-88
2022/11/06 00:55:24;;;;;;;11.45;8.57;;;9.90;99.90;;;;;;6169872;23;20021;-88
2022/11/06 00:57:49;;;;;;;14.82;8.80;;;9.80;99.90;;;;;;6169638;23;20009;-88
2022/11/06 01:00:17;;;;;;;15.23;8.60;;;9.80;99.90;;;;;;6171922;23;20454;-93
2022/11/06 01:02:44;;;;;;;13.43;9.15;;;9.80;99.90;;;;;;6171082;23;20453;-93
2022/11/06 01:05:10;;;;;;;14.95;9.40;;;9.80;99.90;;;;;;6173729;23;20423;-94
2022/11/06 01:07:36;;;;;;;15.65;8.77;;;9.90;99.90;;;;;;6173422;23;20271;-92
2022/11/06 01:10:02;;;;;;;13.13;9.10;;;9.80;99.90;;;;;;6174161;23;20084;-93
2022/11/06 01:12:30;;;;;;;15.20;9.63;;;9.90;99.90;;;;;;6172010;23;20084;-93
2022/11/06 01:14:56;;;;;;;14.48;9.07;;;9.80;99.90;;;;;;6172889;23;20092;-94
2022/11/06 01:17:21;;;;;;;18.10;9.70;;;9.80;99.90;;;;;;6170176;23;20101;-95
2022/11/06 01:19:47;;;;;;;16.50;9.18;;;9.90;99.90;;;;;;6172539;23;20016;-95
2022/11/06 01:22:13;;;;;;;16.02;9.15;;;9.80;99.90;;;;;;6170778;23;20027;-91
2022/11/06 01:24:39;;;;;;;13.60;9.25;;;9.80;99.90;;;;;;6173051;23;20013;-93
2022/11/06 01:27:05;;;;;;;14.95;9.27;;;9.80;99.90;;;;;;6169045;23;20242;-89
2022/11/06 01:29:30;;;;;;;16.00;9.25;;;9.80;99.90;;;;;;6195075;23;20086;-87
2022/11/06 01:31:56;;;;;;;17.42;10.20;;;9.80;99.90;;;;;;6192820;23;20012;-89
2022/11/06 01:34:22;;;;;;;16.63;10.15;;;9.80;99.90;;;;;;6169108;23;20272;-89
2022/11/06 01:36:47;;;;;;;17.77;9.85;;;9.80;99.90;;;;;;6169091;23;20170;-88
2022/11/06 01:39:14;;;;;;;15.45;10.05;;;9.80;99.90;;;;;;6170902;23;20031;-90
2022/11/06 01:41:51;;;;;;;15.85;10.20;;;9.80;99.90;;;;;;6170495;23;20017;-90
2022/11/06 01:44:35;;;;;;;14.52;10.32;;;9.70;99.90;;;;;;6169841;23;20415;-89
2022/11/06 01:47:03;;;;;;;18.42;10.80;;;9.80;99.90;;;;;;6299505;22;20039;-89
2022/11/06 01:49:33;;;;;;;13.95;10.25;;;9.70;99.90;;;;;;6171245;23;20350;-88
2022/11/06 01:52:03;;;;;;;16.00;10.00;;;9.80;99.90;;;;;;6169444;23;20100;-89
2022/11/06 01:54:32;;;;;;;15.57;10.07;;;9.80;99.90;;;;;;6170278;23;20020;-88
2022/11/06 01:57:00;;;;;;;16.55;10.75;;;9.70;99.90;;;;;;6169955;23;20504;-88
2022/11/06 01:59:29;;;;;;;15.85;10.27;;;9.80;99.90;;;;;;6170921;23;20020;-88
2022/11/06 02:01:54;;;;;;;18.48;10.93;;;9.80;99.90;;;;;;6169337;23;20091;-90
2022/11/06 02:04:31;;;;;;;20.20;10.57;;;9.70;99.90;;;;;;6171835;23;20145;-89
2022/11/06 02:06:58;;;;;;;18.95;11.07;;;9.80;99.90;;;;;;6172114;23;20028;-90
2022/11/06 02:09:24;;;;;;;15.98;10.30;;;9.70;99.90;;;;;;6172231;22;20016;-88
2022/11/06 02:12:09;;;;;;;15.27;10.73;;;9.70;99.90;;;;;;6172649;23;20264;-87
2022/11/06 02:15:18;;;;;;;18.83;11.00;;;9.70;99.90;;;;;;6172502;23;20194;-89
2022/11/06 02:18:01;;;;;;;18.08;11.57;;;9.70;99.90;;;;;;6169356;23;20485;-88
2022/11/06 02:20:40;;;;;;;15.95;11.02;;;9.70;99.90;;;;;;6303324;22;20025;-90
2022/11/06 02:23:24;;;;;;;15.70;11.13;;;9.70;99.90;;;;;;6171900;23;20027;-88
2022/11/06 02:26:07;;;;;;;18.08;11.95;;;9.70;99.90;;;;;;6195590;23;20062;-88
2022/11/06 02:28:35;;;;;;;19.88;11.50;;;9.70;99.90;;;;;;6304641;22;20100;-88
2022/11/06 02:31:07;;;;;;;16.73;10.82;;;9.80;99.90;;;;;;6193894;23;20019;-89
2022/11/06 02:33:37;;;;;;;16.00;11.38;;;9.70;99.90;;;;;;6171636;23;20092;-88
2022/11/06 02:36:07;;;;;;;19.33;12.68;;;9.70;99.90;;;;;;6196012;23;20102;-89
2022/11/06 02:38:42;;;;;;;19.77;12.45;;;9.70;99.90;;;;;;6171812;23;20055;-88
2022/11/06 02:41:17;;;;;;;18.33;11.45;;;9.80;99.90;;;;;;6169797;23;20024;-88
2022/11/06 02:43:44;;;;;;;;;;;9.70;99.90;;;;;;6170752;23;20028;-88
2022/11/06 02:46:30;;;;;;;19.05;12.13;;;9.80;99.90;;;;;;6169277;23;19916;-89
2022/11/06 02:49:06;;;;;;;18.38;12.05;;;9.70;99.90;;;;;;6197114;23;20021;-89
2022/11/06 02:51:38;;;;;;;21.42;12.50;;;9.70;99.90;;;;;;6171733;23;20017;-88
2022/11/06 02:54:05;;;;;;;18.63;12.95;;;9.70;99.90;;;;;;6196494;23;20024;-88
2022/11/06 02:56:37;;;;;;;20.40;12.45;;;9.60;99.90;;;;;;6172864;23;20521;-89
2022/11/06 02:59:13;;;;;;;17.42;12.27;;;9.70;99.90;;;;;;6172910;23;20021;-89
2022/11/06 03:01:47;;;;;;;18.05;12.52;;;9.80;99.90;;;;;;6169995;23;20013;-89
2022/11/06 03:04:22;;;;;;;19.98;13.13;;;9.70;99.90;;;;;;6197100;23;20092;-90
2022/11/06 03:07:04;;;;;;;17.70;11.98;;;9.80;99.90;;;;;;6172444;23;20088;-88
2022/11/06 03:09:31;;;;;;;21.27;12.98;;;9.70;99.90;;;;;;6198396;23;20017;-90
2022/11/06 03:12:13;;;;;;;17.17;12.93;;;9.80;99.90;;;;;;6170873;23;20065;-88
2022/11/06 03:15:10;;;;;;;18.73;13.15;;;9.70;99.90;;;;;;6172226;23;20012;-89
2022/11/06 03:18:11;;;;;;;20.20;13.32;;;9.60;99.90;;;;;;6169048;22;20017;-87
2022/11/06 03:20:50;;;;;;;16.40;12.95;;;9.60;99.90;;;;;;6189839;23;20017;-88
2022/11/06 03:23:30;;;;;;;18.92;12.55;;;9.70;99.90;;;;;;6172375;23;20031;-88
2022/11/06 03:26:17;;;;;;;18.63;12.60;;;9.70;99.90;;;;;;6172335;23;20005;-89
2022/11/06 03:29:21;;;;;;;18.73;12.65;;;9.60;99.90;;;;;;6172902;23;20044;-89
2022/11/06 03:31:54;;;;;;;18.55;12.85;;;9.60;99.90;;;;;;6205943;22;20020;-90
2022/11/06 03:34:38;;;;;;;17.55;11.65;;;9.70;99.90;;;;;;6202019;23;20098;-87
2022/11/06 03:37:18;;;;;;;18.05;12.73;;;9.60;99.90;;;;;;6172400;23;20445;-88
2022/11/06 03:39:54;;;;;;;18.70;12.27;;;9.70;99.90;;;;;;6196724;23;20016;-89
2022/11/06 03:42:24;;;;;;;18.30;13.07;;;9.70;99.90;;;;;;6196659;23;20017;-90
2022/11/06 03:44:56;;;;;;;18.92;12.60;;;9.70;99.90;;;;;;6172046;23;20020;-88
2022/11/06 03:47:33;;;;;;;20.45;12.45;;;9.70;99.90;;;;;;6169213;23;20509;-88
2022/11/06 03:50:05;;;;;;;15.82;12.32;;;9.70;99.90;;;;;;6172879;23;20092;-89
2022/11/06 03:52:37;;;;;;;22.60;12.18;;;9.70;99.90;;;;;;6302833;22;20662;-88
2022/11/06 03:55:21;;;;;;;19.88;12.75;;;9.70;99.90;;;;;;6147159;23;20017;-90
2022/11/06 03:58:02;;;;;;;17.55;11.80;;;9.70;99.90;;;;;;6147476;22;20352;-87
2022/11/06 04:00:34;;;;;;;22.25;13.32;;;9.60;99.90;;;;;;6171501;23;20048;-88
2022/11/06 04:03:05;;;;;;;15.77;12.02;;;9.70;99.90;;;;;;6146377;22;20115;-88
2022/11/06 04:05:39;;;;;;;15.82;11.80;;;9.60;99.90;;;;;;6147593;23;20091;-88
2022/11/06 04:14:03;;;;;;;16.10;11.23;;;9.60;99.90;;;;;;6172113;23;20095;-90
2022/11/06 04:16:35;;;;;;;16.02;11.18;;;9.60;99.90;;;;;;6144473;23;20371;-90
2022/11/06 04:19:01;;;;;;;18.35;10.77;;;9.70;99.90;;;;;;6171973;23;20012;-89
2022/11/06 04:21:45;;;;;;;20.35;11.82;;;9.70;99.90;;;;;;6147044;23;20461;-90
2022/11/06 04:28:06;;;;;;;16.33;11.40;;;9.70;99.90;;;;;;6169900;23;20020;-90
2022/11/06 04:30:42;;;;;;;16.92;11.38;;;9.70;99.90;;;;;;6146451;23;20013;-89
2022/11/06 04:33:36;;;;;;;15.43;10.18;;;9.60;99.90;;;;;;6170858;23;20027;-88
2022/11/06 04:36:25;;;;;;;16.08;10.93;;;9.70;99.90;;;;;;6150673;23;20322;-88
2022/11/06 04:39:09;;;;;;;17.15;10.43;;;9.60;99.90;;;;;;6147545;22;20513;-88
2022/11/06 04:41:45;;;;;;;18.08;11.07;;;9.80;99.90;;;;;;6147139;23;20016;-88
2022/11/06 04:44:24;;;;;;;14.55;9.50;;;9.60;99.90;;;;;;6173081;23;20513;-89
2022/11/06 04:46:56;;;;;;;17.63;10.52;;;9.70;99.90;;;;;;6169701;23;20018;-88
2022/11/06 04:49:23;;;;;;;13.52;10.32;;;9.70;99.90;;;;;;6146014;23;20012;-88
2022/11/06 04:51:49;;;;;;;15.80;10.00;;;9.70;99.90;;;;;;6146838;23;20091;-88
2022/11/06 04:54:16;;;;;;;18.02;10.20;;;9.80;99.90;;;;;;6164411;23;20115;-89
2022/11/06 04:56:41;;;;;;;18.88;10.02;;;9.80;99.90;;;;;;6171281;23;20081;-89
2022/11/06 04:59:15;;;;;;;14.35;10.73;;;9.70;99.90;;;;;;6172325;23;20091;-90
2022/11/06 05:01:40;;;;;;;13.07;9.30;;;9.80;99.90;;;;;;6169444;23;20016;-89
2022/11/06 05:04:06;;;;;;;15.93;9.43;;;9.70;99.90;;;;;;6196637;23;20020;-89
2022/11/06 05:06:31;;;;;;;17.25;9.43;;;9.70;99.90;;;;;;6171298;23;20012;-89
2022/11/06 05:08:57;;;;;;;17.42;9.65;;;9.70;99.90;;;;;;6196030;23;20009;-89
2022/11/06 05:11:23;;;;;;;15.32;9.70;;;9.70;99.90;;;;;;6170868;23;20058;-89
2022/11/06 05:13:49;;;;;;;15.43;9.82;;;9.70;99.90;;;;;;6197399;23;20016;-89
2022/11/06 05:16:15;;;;;;;14.45;9.68;;;9.70;99.90;;;;;;6169171;23;20031;-89
2022/11/06 05:18:41;;;;;;;15.25;9.98;;;9.70;99.90;;;;;;6197187;23;20085;-89
2022/11/06 05:23:50;;;;;;;16.42;9.50;;;9.80;99.90;;;;;;6196575;23;20052;-88
2022/11/06 05:26:16;;;;;;;13.05;8.88;;;9.60;99.90;;;;;;6170192;23;20330;-89
2022/11/06 05:28:42;;;;;;;15.52;8.68;;;9.70;99.90;;;;;;6170758;23;20012;-89
2022/11/06 05:31:07;;;;;;;15.98;8.88;;;9.80;99.90;;;;;;6169831;23;20133;-89
2022/11/06 05:33:36;;;;;;;14.77;8.60;;;9.70;99.90;;;;;;6170464;23;20013;-90
2022/11/06 05:36:03;;;;;;;16.50;9.05;;;9.70;99.90;;;;;;6170232;23;20016;-89
2022/11/06 05:38:29;;;;;;;14.38;8.95;;;9.80;99.90;;;;;;6172476;23;20019;-87
2022/11/06 05:40:55;;;;;;;15.00;8.20;;;9.70;99.90;;;;;;6172794;23;20082;-89
2022/11/06 05:43:21;;;;;;;14.18;8.40;;;9.70;99.90;;;;;;6172659;23;20028;-89
2022/11/06 05:45:47;;;;;;;13.13;8.60;;;9.70;99.90;;;;;;6195309;23;20123;-88
2022/11/06 05:48:12;;;;;;;13.80;8.93;;;9.70;99.90;;;;;;6171647;23;20028;-88
2022/11/06 05:50:41;;;;;;;14.85;8.20;;;9.60;99.90;;;;;;6172686;23;20202;-89
2022/11/06 05:53:07;;;;;;;12.60;8.85;;;9.70;99.90;;;;;;6172583;23;20155;-89
2022/11/06 05:55:32;;;;;;;13.70;8.25;;;9.70;99.90;;;;;;6173759;23;20013;-89
2022/11/06 05:57:58;;;;;;;16.38;8.68;;;9.70;99.90;;;;;;6172981;23;20020;-88
2022/11/06 06:00:24;;;;;;;15.60;8.85;;;9.60;99.90;;;;;;6172800;23;20023;-88
2022/11/06 06:02:50;;;;;;;11.98;7.47;;;9.60;99.90;;;;;;6170708;23;20374;-88
2022/11/06 06:05:16;;;;;;;14.35;7.60;;;9.70;99.90;;;;;;6196425;23;20100;-88
2022/11/06 06:07:41;;;;;;;11.80;7.32;;;9.70;99.90;;;;;;6170830;23;20035;-89
2022/11/06 06:10:07;;;;;;;12.98;6.97;;;9.70;99.90;;;;;;6171312;23;20099;-89
2022/11/06 06:12:33;;;;;;;15.27;7.30;;;9.60;99.90;;;;;;6172723;23;20160;-88
2022/11/06 06:14:59;;;;;;;13.98;6.97;;;9.60;99.90;;;;;;6172556;23;20054;-89
2022/11/06 06:17:26;;;;;;;16.13;6.60;;;9.70;99.90;;;;;;6169746;23;20008;-89
2022/11/06 06:19:52;;;;;;;20.95;7.85;;;9.60;99.90;;;;;;6172026;23;20020;-88
2022/11/06 06:22:17;;;;;;;14.75;6.95;;;9.60;99.90;;;;;;6171487;23;20365;-89
2022/11/06 06:24:46;;;;;;;12.73;6.20;;;9.60;99.90;;;;;;6173264;23;20013;-89
2022/11/06 06:27:12;;;;;;;12.50;5.93;;;9.70;99.90;;;;;;6196168;23;20023;-88
2022/11/06 06:29:38;;;;;;;10.60;6.53;;;9.60;99.90;;;;;;6172119;23;20123;-90
2022/11/06 06:32:04;;;;;;;9.75;6.78;;;9.60;99.90;;;;;;6170369;23;20479;-90
2022/11/06 06:34:29;;;;;;;11.18;5.82;;;9.70;99.90;;;;;;6171672;23;20039;-89
2022/11/06 06:36:55;;;;;;;12.05;5.90;;;9.60;99.90;;;;;;6171767;23;20013;-88
2022/11/06 06:39:21;;;;;;;13.07;6.57;;;9.60;99.90;;;;;;6197748;23;20021;-89
2022/11/06 06:41:47;;;;;;;12.80;6.47;;;9.70;99.90;;;;;;6170978;23;20021;-88
2022/11/06 06:44:13;;;;;;;14.75;6.20;;;9.60;99.90;;;;;;6172688;23;20345;-88
2022/11/06 06:46:39;;;;;;;10.48;6.00;;;9.60;99.90;;;;;;6169614;23;20016;-87
2022/11/06 06:49:05;;;;;;;12.50;6.28;;;9.70;99.90;;;;;;6196554;23;20372;-88
2022/11/06 06:51:30;;;;;;;10.73;5.75;;;9.70;99.90;;;;;;6195545;23;20061;-90
2022/11/06 06:53:56;;;;;;;14.50;5.85;;;9.70;99.90;;;;;;6171573;23;20020;-89
2022/11/06 06:56:22;;;;;;;16.35;5.43;;;9.80;99.90;;;;;;6171969;23;20061;-89
2022/11/06 06:58:48;;;;;;;12.68;5.13;;;9.80;99.90;;;;;;6172675;23;20008;-88
2022/11/06 07:01:14;;;;;;;11.00;5.05;;;9.90;99.90;;;;;;6193679;23;20477;-89
2022/11/06 07:03:39;;;;;;;11.70;4.88;;;9.90;99.90;;;;;;6196427;23;20051;-89
2022/11/06 07:06:08;;;;;;;13.02;5.22;;;9.90;99.90;;;;;;6169418;23;20020;-89
2022/11/06 07:08:34;;;;;;;8.57;4.90;;;9.90;99.90;;;;;;6172240;23;20345;-89
2022/11/06 07:11:03;;;;;;;14.63;6.07;;;9.90;99.90;;;;;;6171026;23;20023;-88
2022/11/06 07:13:29;;;;;;;11.05;4.65;;;10.00;99.90;;;;;;6196678;23;20062;-88
2022/11/06 07:15:54;;;;;;;10.13;5.28;;;10.00;99.90;;;;;;6169250;23;20012;-89
2022/11/06 07:18:21;;;;;;;14.02;4.88;;;10.00;99.90;;;;;;6195320;23;20016;-88
2022/11/06 07:20:47;;;;;;;8.05;4.50;;;10.00;99.90;;;;;;6170613;23;20020;-89
2022/11/06 07:23:13;;;;;;;12.82;5.55;;;10.00;99.90;;;;;;6171650;23;20116;-88
2022/11/06 07:25:38;;;;;;;9.65;4.85;;;10.10;99.90;;;;;;6171749;23;20016;-88
2022/11/06 07:28:06;;;;;;;11.75;5.00;;;10.20;99.90;;;;;;6196210;23;20085;-88
2022/11/06 07:30:33;;;;;;;9.65;4.82;;;10.20;99.90;;;;;;6170090;23;20016;-89
2022/11/06 07:33:00;;;;;;;10.93;4.60;;;10.30;99.90;;;;;;6171741;23;20073;-88
2022/11/06 07:35:26;;;;;;;9.90;4.70;;;10.30;99.90;;;;;;6171943;23;20449;-89
2022/11/06 07:37:52;;;;;;;10.93;4.70;;;10.30;99.90;;;;;;6197354;23;20067;-88
2022/11/06 07:40:18;;;;;;;10.70;4.57;;;10.40;99.90;;;;;;6171599;23;20017;-88
2022/11/06 07:42:43;;;;;;;9.80;4.72;;;10.40;99.90;;;;;;6170842;23;20024;-88
2022/11/06 07:45:09;;;;;;;9.25;4.43;;;10.50;99.90;;;;;;6196904;23;20397;-88
2022/11/06 07:47:35;;;;;;;9.43;4.15;;;10.40;99.90;;;;;;6169439;23;20166;-88
2022/11/06 07:50:01;;;;;;;9.15;4.65;;;10.50;99.90;;;;;;6170892;23;20062;-89
2022/11/06 07:52:26;;;;;;;10.55;4.00;;;10.50;99.90;;;;;;6170637;23;20123;-89
2022/11/06 07:54:52;;;;;;;10.57;4.28;;;10.50;99.90;;;;;;6147445;23;20024;-88
2022/11/06 07:57:18;;;;;;;9.05;4.57;;;10.50;99.90;;;;;;6146376;22;20013;-88
2022/11/06 07:59:43;;;;;;;13.52;4.82;;;10.30;99.90;;;;;;6147134;23;20745;-89
2022/11/06 08:02:11;;;;;;;9.85;4.10;;;10.30;99.90;;;;;;6144380;23;20482;-88
2022/11/06 08:04:37;;;;;;;12.23;5.22;;;10.30;99.90;;;;;;6147590;22;20618;-89
2022/11/06 08:07:03;;;;;;;13.02;4.50;;;10.30;99.90;;;;;;6147183;22;20254;-89
2022/11/06 08:09:29;;;;;;;16.80;4.70;;;10.30;99.90;;;;;;6148154;23;20453;-90
2022/11/06 08:11:54;;;;;;;8.65;4.13;;;10.40;99.90;;;;;;6145994;23;20013;-88
2022/11/06 08:14:23;;;;;;;9.65;4.32;;;10.40;99.90;;;;;;6146741;23;20073;-90
2022/11/06 08:16:48;;;;;;;8.05;3.85;;;10.50;99.90;;;;;;6144243;23;20478;-88
2022/11/06 08:19:14;;;;;;;7.85;4.13;;;10.50;99.90;;;;;;6146241;23;20020;-88
2022/11/06 08:21:39;;;;;;;8.10;4.05;;;10.60;99.90;;;;;;6147952;23;20226;-88
2022/11/06 08:24:06;;;;;;;6.53;3.80;;;10.60;99.90;;;;;;6147300;23;20415;-89
2022/11/06 08:26:32;;;;;;;7.70;4.00;;;10.50;99.90;;;;;;6146302;23;20051;-88
2022/11/06 08:28:58;;;;;;;8.20;3.95;;;10.60;99.90;;;;;;6172174;23;20095;-90
2022/11/06 08:31:24;;;;;;;10.35;4.10;;;10.50;99.90;;;;;;6144765;23;20242;-89
2022/11/06 08:33:52;;;;;;;6.20;3.97;;;10.50;99.90;;;;;;6171860;23;20020;-90
2022/11/06 08:36:21;;;;;;;7.50;4.38;;;10.50;99.90;;;;;;6171039;23;20145;-90
2022/11/06 08:38:47;;;;;;;11.80;4.28;;;10.60;99.90;;;;;;6171946;23;20020;-89
2022/11/06 08:41:13;;;;;;;12.48;3.80;;;10.60;99.90;;;;;;6146831;23;20027;-89
2022/11/06 08:43:39;;;;;;;6.30;3.70;;;10.60;99.90;;;;;;6171970;23;20325;-89
2022/11/06 08:46:06;;;;;;;8.68;3.50;;;10.50;99.90;;;;;;6145136;22;20426;-88
2022/11/06 08:48:32;;;;;;;8.63;3.85;;;10.60;99.90;;;;;;6147697;23;20338;-89
2022/11/06 08:50:58;;;;;;;8.95;3.85;;;10.70;99.90;;;;;;6145846;23;20013;-90
2022/11/06 08:53:24;;;;;;;10.30;4.15;;;10.70;99.90;;;;;;6154310;23;20013;-91
2022/11/06 08:55:49;;;;;;;8.27;3.33;;;10.80;99.90;;;;;;6171261;23;20012;-89
2022/11/06 08:58:15;;;;;;;9.45;4.03;;;10.80;99.90;;;;;;6196701;23;20024;-89
2022/11/06 09:00:41;;;;;;;13.32;4.40;;;10.80;99.90;;;;;;6195777;23;20021;-90
2022/11/06 09:03:10;;;;;;;7.43;3.58;;;10.90;99.90;;;;;;6170703;23;20023;-89
2022/11/06 09:05:40;;;;;;;11.30;4.10;;;10.80;99.90;;;;;;6195667;23;20125;-90
2022/11/06 09:08:06;;;;;;;10.80;3.60;;;10.80;99.90;;;;;;6170933;23;20353;-89
2022/11/06 09:10:32;;;;;;;8.35;3.75;;;10.90;99.90;;;;;;6171079;23;20402;-88
2022/11/06 09:12:58;;;;;;;8.00;3.53;;;10.90;99.90;;;;;;6172016;23;20048;-90
2022/11/06 09:15:24;;;;;;;6.88;3.20;;;11.00;99.90;;;;;;6172156;23;20119;-89
2022/11/06 09:17:51;;;;;;;10.10;2.83;;;11.00;99.90;;;;;;6169846;23;20083;-89
2022/11/06 09:20:18;;;;;;;5.30;2.92;;;11.20;99.90;;;;;;6172588;23;20012;-89
2022/11/06 09:22:45;;;;;;;8.40;3.75;;;11.30;99.90;;;;;;6172213;22;20016;-90
2022/11/06 09:25:11;;;;;;;7.25;3.72;;;11.40;99.90;;;;;;6198183;23;20016;-90
2022/11/06 09:27:52;;;;;;;8.00;3.30;;;11.40;99.90;;;;;;6196825;23;20024;-90
2022/11/06 09:30:23;;;;;;;11.27;3.25;;;11.30;99.90;;;;;;6171883;23;20043;-89
2022/11/06 09:32:55;;;;;;;10.35;3.20;;;11.20;99.90;;;;;;6170419;23;20028;-89
2022/11/06 09:35:23;;;;;;;7.32;3.40;;;11.20;99.90;;;;;;6172134;23;20032;-89
2022/11/06 09:37:52;;;;;;;6.75;3.20;;;11.30;99.90;;;;;;6172919;23;20013;-89
2022/11/06 09:40:27;;;;;;;8.18;3.22;;;11.40;99.90;;;;;;6172631;23;20020;-89
2022/11/06 09:43:02;;;;;;;8.10;3.55;;;11.60;99.90;;;;;;6197794;23;20161;-89
2022/11/06 09:45:31;;;;;;;6.43;3.15;;;11.80;99.90;;;;;;6303372;22;20433;-88
2022/11/06 09:48:29;;;;;;;6.95;3.30;;;11.90;99.90;;;;;;6171474;23;20021;-87
2022/11/06 09:51:21;;;;;;;10.25;3.10;;;12.20;99.90;;;;;;6174884;23;20020;-89
2022/11/06 09:54:06;;;;;;;4.72;3.05;;;12.10;99.90;;;;;;6201106;22;20072;-88
2022/11/06 09:56:37;;;;;;;8.35;3.30;;;12.20;99.90;;;;;;6170277;23;20019;-88
2022/11/06 09:59:06;;;;;;;8.43;3.08;;;12.30;99.90;;;;;;6172042;23;20164;-89
2022/11/06 10:01:43;;;;;;;5.90;2.92;;;12.40;99.90;;;;;;6169589;23;20028;-88
2022/11/06 10:04:28;;;;;;;5.47;2.75;;;12.40;99.90;;;;;;6196624;23;20098;-89
2022/11/06 10:06:54;;;;;;;8.65;2.92;;;12.30;99.90;;;;;;6301617;22;20138;-88
2022/11/06 10:09:20;;;;;;;3.78;2.40;;;12.40;99.90;;;;;;6172232;23;20072;-89
2022/11/06 10:11:51;;;;;;;6.38;2.70;;;12.50;99.90;;;;;;6171592;23;20056;-88
2022/11/06 10:14:49;;;;;;;5.00;2.78;;;12.50;99.90;;;;;;6303357;22;20354;-88
2022/11/06 10:17:37;;;;;;;8.05;2.92;;;12.70;99.90;;;;;;6168690;23;20013;-87
2022/11/06 10:20:11;;;;;;;4.25;2.40;;;12.80;99.90;;;;;;6196486;23;20112;-88
2022/11/06 10:22:43;;;;;;;6.60;2.70;;;12.80;99.90;;;;;;6171190;23;20066;-89
2022/11/06 10:25:35;;;;;;;6.22;2.40;;;12.80;99.90;;;;;;6171600;23;20095;-88
2022/11/06 10:28:13;;;;;;;6.07;2.50;;;12.90;99.90;;;;;;6170957;23;20016;-88
2022/11/06 10:31:15;;;;;;;8.77;2.55;;;12.90;99.90;;;;;;6169999;23;20587;-88
2022/11/06 10:34:01;;;;;;;6.93;2.40;;;13.00;99.90;;;;;;6199938;22;20063;-86
2022/11/06 10:36:36;;;;;;;8.07;2.58;;;13.00;99.90;;;;;;6170629;23;20017;-88
2022/11/06 10:39:03;;;;;;;;;;;12.90;99.90;;;;;;6172549;23;20017;-87
2022/11/06 10:41:33;;;;;;;5.72;2.25;;;12.80;99.90;;;;;;6169908;23;19968;-89
2022/11/06 10:44:05;;;;;;;7.53;2.28;;;12.70;99.90;;;;;;6172220;23;20021;-87
2022/11/06 10:46:51;;;;;;;5.32;2.38;;;12.60;99.90;;;;;;6167418;23;20016;-88
2022/11/06 10:49:34;;;;;;;4.40;2.20;;;12.50;99.90;;;;;;6195935;23;20017;-88
2022/11/06 10:52:37;;;;;;;6.28;2.08;;;12.40;99.90;;;;;;6170920;23;20064;-87
2022/11/06 10:55:34;;;;;;;6.43;2.50;;;12.50;99.90;;;;;;6195288;23;20279;-90
2022/11/06 10:58:14;;;;;;;7.60;2.22;;;12.40;99.90;;;;;;6170380;23;20009;-88
2022/11/06 11:00:41;;;;;;;8.43;2.88;;;12.60;99.90;;;;;;6169163;23;20017;-89
2022/11/06 11:03:23;;;;;;;9.38;2.67;;;12.60;99.90;;;;;;6169157;23;20104;-87
2022/11/06 11:05:48;;;;;;;6.88;2.58;;;12.60;99.90;;;;;;6169943;23;20198;-87
2022/11/06 11:08:32;;;;;;;5.88;2.70;;;12.60;99.90;;;;;;6169456;23;20155;-89
2022/11/06 11:11:04;;;;;;;7.55;2.50;;;12.40;99.90;;;;;;6171416;23;20413;-88
2022/11/06 11:13:30;;;;;;;4.97;2.40;;;12.50;99.90;;;;;;6171443;23;20143;-89
2022/11/06 11:15:55;;;;;;;6.20;2.40;;;12.50;99.90;;;;;;6193990;23;20092;-88
2022/11/06 11:18:30;;;;;;;7.57;2.45;;;12.40;99.90;;;;;;6171868;23;20017;-88
2022/11/06 11:21:18;;;;;;;7.97;2.67;;;12.40;99.90;;;;;;6170583;22;20096;-90
2022/11/06 11:23:45;;;;;;;8.95;2.50;;;12.30;99.90;;;;;;6302428;22;20027;-88
2022/11/06 11:26:23;;;;;;;5.65;2.42;;;12.30;99.90;;;;;;6171369;23;20161;-89
2022/11/06 11:28:54;;;;;;;8.18;2.55;;;12.30;99.90;;;;;;6171554;23;20020;-89
2022/11/06 11:31:28;;;;;;;5.28;2.38;;;12.20;99.90;;;;;;6169394;23;20017;-89
2022/11/06 11:33:56;;;;;;;6.53;2.70;;;12.20;99.90;;;;;;6170871;23;20496;-89
2022/11/06 11:36:22;;;;;;;5.80;2.45;;;12.30;99.90;;;;;;6170012;23;20081;-88
2022/11/06 11:38:48;;;;;;;7.93;2.67;;;12.30;99.90;;;;;;6171466;23;20024;-87
2022/11/06 11:41:22;;;;;;;4.65;2.22;;;12.40;99.90;;;;;;6170674;23;20017;-89
2022/11/06 11:43:56;;;;;;;5.68;2.42;;;12.20;99.90;;;;;;6170278;23;20116;-89
2022/11/06 11:46:25;;;;;;;6.07;2.53;;;12.30;99.90;;;;;;6299833;22;20078;-89
2022/11/06 11:48:54;;;;;;;5.28;2.33;;;12.20;99.90;;;;;;6170657;23;20012;-88
2022/11/06 11:51:35;;;;;;;7.40;3.03;;;12.10;99.90;;;;;;6170039;23;20103;-89
2022/11/06 11:54:12;;;;;;;6.40;2.40;;;12.10;99.90;;;;;;6171171;23;20323;-88
2022/11/06 11:56:51;;;;;;;5.00;2.63;;;12.00;99.90;;;;;;6194476;23;20521;-87
2022/11/06 11:59:33;;;;;;;6.28;2.60;;;12.00;99.90;;;;;;6171406;23;20644;-89
2022/11/06 12:02:17;;;;;;;6.00;2.65;;;12.00;99.90;;;;;;6169378;23;20023;-89
2022/11/06 12:04:46;;;;;;;8.20;3.00;;;11.80;99.90;;;;;;6196017;23;20047;-88
2022/11/06 12:07:24;;;;;;;6.78;2.83;;;11.90;99.90;;;;;;6169925;23;20311;-88
2022/11/06 12:09:50;;;;;;;6.95;3.05;;;11.90;99.90;;;;;;6171731;23;20042;-89
2022/11/06 12:12:32;;;;;;;6.15;2.92;;;12.00;99.90;;;;;;6171439;23;20077;-90
2022/11/06 12:15:18;;;;;;;6.57;3.20;;;12.10;99.90;;;;;;6197119;23;20013;-89
2022/11/06 12:18:00;;;;;;;5.88;2.33;;;12.30;99.90;;;;;;6194668;23;20099;-88
2022/11/06 12:20:40;;;;;;;6.78;2.40;;;12.40;99.90;;;;;;6171542;23;20062;-88
2022/11/06 12:23:24;;;;;;;5.13;2.25;;;12.50;99.90;;;;;;6303630;22;20274;-89
2022/11/06 12:26:05;;;;;;;7.43;2.70;;;12.60;99.90;;;;;;6170928;23;20017;-89
2022/11/06 12:28:35;;;;;;;5.88;2.53;;;12.70;99.90;;;;;;6171350;23;20073;-89
2022/11/06 12:31:16;;;;;;;4.82;2.03;;;12.80;99.90;;;;;;6169542;23;20059;-89
2022/11/06 12:33:44;;;;;;;5.07;2.20;;;13.10;99.90;;;;;;6171531;23;20013;-89
2022/11/06 12:36:14;;;;;;;5.28;2.28;;;13.40;99.90;;;;;;6170441;23;20017;-87
2022/11/06 12:38:56;;;;;;;4.90;1.90;;;13.50;99.90;;;;;;6171478;23;20024;-90
2022/11/06 12:41:25;;;;;;;6.43;2.10;;;13.40;99.90;;;;;;6169797;23;20532;-88
2022/11/06 12:43:51;;;;;;;8.13;1.98;;;13.30;99.90;;;;;;6196081;23;20021;-89
2022/11/06 12:46:31;;;;;;;5.13;1.90;;;13.30;99.90;;;;;;6192539;23;20020;-88
2022/11/06 12:49:25;;;;;;;7.43;2.08;;;13.30;99.90;;;;;;6302737;22;20025;-88
2022/11/06 12:52:11;;;;;;;4.10;2.00;;;13.50;99.90;;;;;;6303243;22;20020;-90
2022/11/06 12:55:06;;;;;;;5.60;1.80;;;13.50;99.90;;;;;;6303237;22;20081;-89
2022/11/06 12:57:56;;;;;;;4.60;1.83;;;13.40;99.90;;;;;;6171120;23;20095;-88
2022/11/06 13:00:37;;;;;;;5.57;2.00;;;13.20;99.90;;;;;;6197777;22;20319;-88
2022/11/06 13:03:31;;;;;;;4.85;1.90;;;13.20;99.90;;;;;;6170165;23;20091;-88
2022/11/06 13:06:07;;;;;;;4.57;2.47;;;12.90;99.90;;;;;;6170824;23;20059;-88
2022/11/06 13:08:44;;;;;;;3.90;1.90;;;12.80;99.90;;;;;;6196608;23;20032;-88
2022/11/06 13:11:54;;;;;;;4.22;1.65;;;12.70;99.90;;;;;;6171658;23;20013;-88
2022/11/06 13:14:51;;;;;;;6.50;2.08;;;12.70;99.90;;;;;;6171949;23;20402;-86
2022/11/06 13:18:13;;;;;;;4.55;1.85;;;12.70;99.90;;;;;;6168943;22;20032;-89
2022/11/06 13:20:48;;;;;;;4.03;1.83;;;12.60;99.90;;;;;;6209948;22;20118;-87
2022/11/06 13:23:24;;;;;;;6.85;1.98;;;12.60;99.90;;;;;;6235356;22;20552;-89